sensor_id;sensor_type;location;lat;lon;timestamp;P1;durP1;ratioP1;P2;durP2;ratioP2
18170;SDS011;9210;48.358;10.902;2023-04-06T00:00:28;17.93;;;10.33;;
18170;SDS011;9210;48.358;10.902;2023-04-06T00:02:57;15.33;;;9.90;;
18170;SDS011;9210;48.358;10.902;2023-04-06T00:05:26;17.27;;;10.90;;
18170;SDS011;9210;48.358;10.902;2023-04-06T00:07:58;20.27;;;9.77;;
18170;SDS011;9210;48.358;10.902;2023-04-06T00:10:27;17.67;;;10.70;;
18170;SDS011;9210;48.358;10.902;2023-04-06T00:12:55;24.33;;;10.80;;
18170;SDS011;9210;48.358;10.902;2023-04-06T00:15:23;15.67;;;9.43;;
18170;SDS011;9210;48.358;10.902;2023-04-06T00:17:52;18.90;;;10.63;;
18170;SDS011;9210;48.358;10.902;2023-04-06T00:20:20;21.13;;;10.50;;
18170;SDS011;9210;48.358;10.902;2023-04-06T00:22:49;19.03;;;10.10;;
18170;SDS011;9210;48.358;10.902;2023-04-06T00:25:19;18.07;;;10.23;;
18170;SDS011;9210;48.358;10.902;2023-04-06T00:27:47;19.20;;;10.60;;
18170;SDS011;9210;48.358;10.902;2023-04-06T00:30:16;19.40;;;11.40;;
18170;SDS011;9210;48.358;10.902;2023-04-06T00:32:44;20.10;;;10.37;;
18170;SDS011;9210;48.358;10.902;2023-04-06T00:35:13;21.67;;;11.03;;
18170;SDS011;9210;48.358;10.902;2023-04-06T00:37:42;17.53;;;11.10;;
18170;SDS011;9210;48.358;10.902;2023-04-06T00:40:10;17.93;;;10.60;;
18170;SDS011;9210;48.358;10.902;2023-04-06T00:42:40;20.73;;;11.20;;
18170;SDS011;9210;48.358;10.902;2023-04-06T00:45:09;20.27;;;11.90;;
18170;SDS011;9210;48.358;10.902;2023-04-06T00:47:38;18.80;;;11.60;;
18170;SDS011;9210;48.358;10.902;2023-04-06T00:50:07;21.60;;;11.87;;
18170;SDS011;9210;48.358;10.902;2023-04-06T00:52:35;21.23;;;11.83;;
18170;SDS011;9210;48.358;10.902;2023-04-06T00:55:07;21.53;;;12.13;;
18170;SDS011;9210;48.358;10.902;2023-04-06T00:57:41;20.73;;;11.50;;
18170;SDS011;9210;48.358;10.902;2023-04-06T01:00:10;20.80;;;11.80;;
18170;SDS011;9210;48.358;10.902;2023-04-06T01:02:41;21.30;;;11.67;;
18170;SDS011;9210;48.358;10.902;2023-04-06T01:05:13;24.60;;;12.63;;
18170;SDS011;9210;48.358;10.902;2023-04-06T01:07:49;20.70;;;12.47;;
18170;SDS011;9210;48.358;10.902;2023-04-06T01:10:22;19.83;;;11.60;;
18170;SDS011;9210;48.358;10.902;2023-04-06T01:12:56;23.50;;;11.80;;
18170;SDS011;9210;48.358;10.902;2023-04-06T01:15:41;23.20;;;12.03;;
18170;SDS011;9210;48.358;10.902;2023-04-06T01:18:14;20.17;;;11.80;;
18170;SDS011;9210;48.358;10.902;2023-04-06T01:20:51;22.37;;;11.87;;
18170;SDS011;9210;48.358;10.902;2023-04-06T01:23:24;26.17;;;12.37;;
18170;SDS011;9210;48.358;10.902;2023-04-06T01:25:53;22.37;;;11.73;;
18170;SDS011;9210;48.358;10.902;2023-04-06T01:28:22;31.57;;;12.83;;
18170;SDS011;9210;48.358;10.902;2023-04-06T01:31:01;24.37;;;12.60;;
18170;SDS011;9210;48.358;10.902;2023-04-06T01:33:48;23.67;;;12.60;;
18170;SDS011;9210;48.358;10.902;2023-04-06T01:36:20;21.07;;;11.27;;
18170;SDS011;9210;48.358;10.902;2023-04-06T01:38:58;25.07;;;11.77;;
18170;SDS011;9210;48.358;10.902;2023-04-06T01:41:34;25.20;;;12.10;;
18170;SDS011;9210;48.358;10.902;2023-04-06T01:44:03;23.63;;;12.47;;
18170;SDS011;9210;48.358;10.902;2023-04-06T01:46:32;23.00;;;11.50;;
18170;SDS011;9210;48.358;10.902;2023-04-06T01:49:02;23.03;;;11.67;;
18170;SDS011;9210;48.358;10.902;2023-04-06T01:51:34;20.77;;;12.50;;
18170;SDS011;9210;48.358;10.902;2023-04-06T01:54:06;23.27;;;12.30;;
18170;SDS011;9210;48.358;10.902;2023-04-06T01:56:50;22.80;;;11.97;;
18170;SDS011;9210;48.358;10.902;2023-04-06T01:59:30;23.20;;;12.07;;
18170;SDS011;9210;48.358;10.902;2023-04-06T02:02:03;23.77;;;11.90;;
18170;SDS011;9210;48.358;10.902;2023-04-06T02:04:33;27.43;;;12.83;;
18170;SDS011;9210;48.358;10.902;2023-04-06T02:07:11;22.90;;;11.70;;
18170;SDS011;9210;48.358;10.902;2023-04-06T02:09:42;22.43;;;11.80;;
18170;SDS011;9210;48.358;10.902;2023-04-06T02:12:19;21.10;;;11.57;;
18170;SDS011;9210;48.358;10.902;2023-04-06T02:14:47;20.00;;;11.57;;
18170;SDS011;9210;48.358;10.902;2023-04-06T02:17:16;19.57;;;11.17;;
18170;SDS011;9210;48.358;10.902;2023-04-06T02:19:45;20.27;;;11.43;;
18170;SDS011;9210;48.358;10.902;2023-04-06T02:22:13;20.63;;;11.30;;
18170;SDS011;9210;48.358;10.902;2023-04-06T02:24:43;21.63;;;11.37;;
18170;SDS011;9210;48.358;10.902;2023-04-06T02:27:13;22.13;;;12.50;;
18170;SDS011;9210;48.358;10.902;2023-04-06T02:29:45;20.53;;;11.83;;
18170;SDS011;9210;48.358;10.902;2023-04-06T02:32:18;24.80;;;12.00;;
18170;SDS011;9210;48.358;10.902;2023-04-06T02:34:47;20.87;;;11.67;;
18170;SDS011;9210;48.358;10.902;2023-04-06T02:37:18;21.43;;;12.17;;
18170;SDS011;9210;48.358;10.902;2023-04-06T02:39:48;23.90;;;12.83;;
18170;SDS011;9210;48.358;10.902;2023-04-06T02:42:16;23.27;;;12.83;;
18170;SDS011;9210;48.358;10.902;2023-04-06T02:44:47;22.47;;;12.10;;
18170;SDS011;9210;48.358;10.902;2023-04-06T02:47:18;20.13;;;11.60;;
18170;SDS011;9210;48.358;10.902;2023-04-06T02:49:49;23.80;;;12.33;;
18170;SDS011;9210;48.358;10.902;2023-04-06T02:52:18;20.90;;;12.33;;
18170;SDS011;9210;48.358;10.902;2023-04-06T02:54:46;20.60;;;11.77;;
18170;SDS011;9210;48.358;10.902;2023-04-06T02:57:23;28.03;;;13.17;;
18170;SDS011;9210;48.358;10.902;2023-04-06T02:59:51;25.80;;;13.37;;
18170;SDS011;9210;48.358;10.902;2023-04-06T03:02:27;23.80;;;11.97;;
18170;SDS011;9210;48.358;10.902;2023-04-06T03:05:04;22.30;;;12.27;;
18170;SDS011;9210;48.358;10.902;2023-04-06T03:07:36;20.50;;;11.23;;
18170;SDS011;9210;48.358;10.902;2023-04-06T03:10:09;22.20;;;12.37;;
18170;SDS011;9210;48.358;10.902;2023-04-06T03:12:39;25.67;;;13.10;;
18170;SDS011;9210;48.358;10.902;2023-04-06T03:15:08;26.67;;;13.87;;
18170;SDS011;9210;48.358;10.902;2023-04-06T03:17:41;22.83;;;12.83;;
18170;SDS011;9210;48.358;10.902;2023-04-06T03:20:19;22.80;;;12.23;;
18170;SDS011;9210;48.358;10.902;2023-04-06T03:22:47;22.67;;;13.00;;
18170;SDS011;9210;48.358;10.902;2023-04-06T03:25:20;25.77;;;12.90;;
18170;SDS011;9210;48.358;10.902;2023-04-06T03:27:50;25.43;;;13.10;;
18170;SDS011;9210;48.358;10.902;2023-04-06T03:30:19;25.07;;;11.57;;
18170;SDS011;9210;48.358;10.902;2023-04-06T03:32:48;24.93;;;13.87;;
18170;SDS011;9210;48.358;10.902;2023-04-06T03:35:18;23.50;;;13.57;;
18170;SDS011;9210;48.358;10.902;2023-04-06T03:37:46;25.13;;;13.73;;
18170;SDS011;9210;48.358;10.902;2023-04-06T03:40:15;23.13;;;14.07;;
18170;SDS011;9210;48.358;10.902;2023-04-06T03:42:43;23.60;;;14.20;;
18170;SDS011;9210;48.358;10.902;2023-04-06T03:45:16;26.57;;;13.67;;
18170;SDS011;9210;48.358;10.902;2023-04-06T03:47:48;22.00;;;13.20;;
18170;SDS011;9210;48.358;10.902;2023-04-06T03:50:17;27.97;;;13.73;;
18170;SDS011;9210;48.358;10.902;2023-04-06T03:52:46;22.73;;;13.10;;
18170;SDS011;9210;48.358;10.902;2023-04-06T03:55:15;23.53;;;12.90;;
18170;SDS011;9210;48.358;10.902;2023-04-06T03:57:43;22.57;;;12.63;;
18170;SDS011;9210;48.358;10.902;2023-04-06T04:00:12;23.97;;;13.30;;
18170;SDS011;9210;48.358;10.902;2023-04-06T04:02:42;24.03;;;12.57;;
18170;SDS011;9210;48.358;10.902;2023-04-06T04:05:11;26.83;;;13.63;;
18170;SDS011;9210;48.358;10.902;2023-04-06T04:07:39;26.87;;;14.00;;
18170;SDS011;9210;48.358;10.902;2023-04-06T04:10:10;23.03;;;13.23;;
18170;SDS011;9210;48.358;10.902;2023-04-06T04:12:38;23.03;;;11.90;;
18170;SDS011;9210;48.358;10.902;2023-04-06T04:15:07;26.73;;;13.27;;
18170;SDS011;9210;48.358;10.902;2023-04-06T04:17:35;26.60;;;13.03;;
18170;SDS011;9210;48.358;10.902;2023-04-06T04:20:06;32.07;;;13.37;;
18170;SDS011;9210;48.358;10.902;2023-04-06T04:22:35;26.87;;;13.00;;
18170;SDS011;9210;48.358;10.902;2023-04-06T04:25:04;22.30;;;13.43;;
18170;SDS011;9210;48.358;10.902;2023-04-06T04:27:37;23.40;;;12.70;;
18170;SDS011;9210;48.358;10.902;2023-04-06T04:30:06;21.10;;;12.87;;
18170;SDS011;9210;48.358;10.902;2023-04-06T04:32:34;23.67;;;12.83;;
18170;SDS011;9210;48.358;10.902;2023-04-06T04:35:07;26.90;;;13.63;;
18170;SDS011;9210;48.358;10.902;2023-04-06T04:37:40;22.53;;;13.13;;
18170;SDS011;9210;48.358;10.902;2023-04-06T04:40:09;23.67;;;13.60;;
18170;SDS011;9210;48.358;10.902;2023-04-06T04:43:00;21.50;;;12.30;;
18170;SDS011;9210;48.358;10.902;2023-04-06T04:45:32;21.43;;;12.43;;
18170;SDS011;9210;48.358;10.902;2023-04-06T04:48:23;22.07;;;13.00;;
18170;SDS011;9210;48.358;10.902;2023-04-06T04:51:00;20.57;;;12.20;;
18170;SDS011;9210;48.358;10.902;2023-04-06T04:53:40;22.63;;;12.63;;
18170;SDS011;9210;48.358;10.902;2023-04-06T04:56:18;26.40;;;13.40;;
18170;SDS011;9210;48.358;10.902;2023-04-06T04:58:51;24.37;;;12.83;;
18170;SDS011;9210;48.358;10.902;2023-04-06T05:01:20;25.00;;;12.10;;
18170;SDS011;9210;48.358;10.902;2023-04-06T05:03:50;23.63;;;13.27;;
18170;SDS011;9210;48.358;10.902;2023-04-06T05:06:21;26.57;;;11.73;;
18170;SDS011;9210;48.358;10.902;2023-04-06T05:08:49;24.80;;;13.63;;
18170;SDS011;9210;48.358;10.902;2023-04-06T05:11:19;24.80;;;12.50;;
18170;SDS011;9210;48.358;10.902;2023-04-06T05:13:54;25.50;;;12.50;;
18170;SDS011;9210;48.358;10.902;2023-04-06T05:16:24;28.80;;;14.13;;
18170;SDS011;9210;48.358;10.902;2023-04-06T05:18:52;22.87;;;13.03;;
18170;SDS011;9210;48.358;10.902;2023-04-06T05:21:27;27.53;;;12.20;;
18170;SDS011;9210;48.358;10.902;2023-04-06T05:24:03;24.80;;;13.37;;
18170;SDS011;9210;48.358;10.902;2023-04-06T05:26:33;23.93;;;12.97;;
18170;SDS011;9210;48.358;10.902;2023-04-06T05:29:07;20.93;;;11.90;;
18170;SDS011;9210;48.358;10.902;2023-04-06T05:31:37;24.87;;;12.17;;
18170;SDS011;9210;48.358;10.902;2023-04-06T05:34:07;19.47;;;11.83;;
18170;SDS011;9210;48.358;10.902;2023-04-06T05:36:38;23.63;;;11.47;;
18170;SDS011;9210;48.358;10.902;2023-04-06T05:39:16;24.80;;;12.17;;
18170;SDS011;9210;48.358;10.902;2023-04-06T05:41:49;22.90;;;12.00;;
18170;SDS011;9210;48.358;10.902;2023-04-06T05:44:28;20.40;;;10.93;;
18170;SDS011;9210;48.358;10.902;2023-04-06T05:47:06;21.07;;;11.03;;
18170;SDS011;9210;48.358;10.902;2023-04-06T05:49:36;24.37;;;11.30;;
18170;SDS011;9210;48.358;10.902;2023-04-06T05:52:11;20.43;;;10.00;;
18170;SDS011;9210;48.358;10.902;2023-04-06T05:54:43;16.40;;;9.07;;
18170;SDS011;9210;48.358;10.902;2023-04-06T05:57:12;22.67;;;9.20;;
18170;SDS011;9210;48.358;10.902;2023-04-06T05:59:42;16.93;;;9.10;;
18170;SDS011;9210;48.358;10.902;2023-04-06T06:02:13;17.47;;;8.73;;
18170;SDS011;9210;48.358;10.902;2023-04-06T06:04:45;18.27;;;9.63;;
18170;SDS011;9210;48.358;10.902;2023-04-06T06:07:17;21.80;;;9.07;;
18170;SDS011;9210;48.358;10.902;2023-04-06T06:09:59;16.77;;;8.33;;
18170;SDS011;9210;48.358;10.902;2023-04-06T06:12:31;18.63;;;8.63;;
18170;SDS011;9210;48.358;10.902;2023-04-06T06:15:00;13.67;;;8.23;;
18170;SDS011;9210;48.358;10.902;2023-04-06T06:17:33;16.87;;;8.30;;
18170;SDS011;9210;48.358;10.902;2023-04-06T06:20:05;14.30;;;8.23;;
18170;SDS011;9210;48.358;10.902;2023-04-06T06:22:35;15.70;;;7.93;;
18170;SDS011;9210;48.358;10.902;2023-04-06T06:25:04;12.83;;;7.13;;
18170;SDS011;9210;48.358;10.902;2023-04-06T06:27:33;12.97;;;7.70;;
18170;SDS011;9210;48.358;10.902;2023-04-06T06:30:04;11.77;;;7.67;;
18170;SDS011;9210;48.358;10.902;2023-04-06T06:32:34;13.63;;;7.80;;
18170;SDS011;9210;48.358;10.902;2023-04-06T06:35:03;13.53;;;8.13;;
18170;SDS011;9210;48.358;10.902;2023-04-06T06:37:32;12.37;;;7.83;;
18170;SDS011;9210;48.358;10.902;2023-04-06T06:40:04;14.57;;;8.43;;
18170;SDS011;9210;48.358;10.902;2023-04-06T06:42:34;14.03;;;7.83;;
18170;SDS011;9210;48.358;10.902;2023-04-06T06:45:30;13.00;;;7.80;;
18170;SDS011;9210;48.358;10.902;2023-04-06T06:47:59;12.10;;;8.10;;
18170;SDS011;9210;48.358;10.902;2023-04-06T06:50:27;12.80;;;8.37;;
18170;SDS011;9210;48.358;10.902;2023-04-06T06:52:56;13.90;;;8.27;;
18170;SDS011;9210;48.358;10.902;2023-04-06T06:55:26;15.50;;;8.33;;
18170;SDS011;9210;48.358;10.902;2023-04-06T06:57:54;14.03;;;7.73;;
18170;SDS011;9210;48.358;10.902;2023-04-06T07:00:23;15.00;;;8.80;;
18170;SDS011;9210;48.358;10.902;2023-04-06T07:02:52;13.87;;;7.70;;
18170;SDS011;9210;48.358;10.902;2023-04-06T07:05:22;13.03;;;8.30;;
18170;SDS011;9210;48.358;10.902;2023-04-06T07:07:56;12.47;;;7.60;;
18170;SDS011;9210;48.358;10.902;2023-04-06T07:10:26;13.00;;;8.20;;
18170;SDS011;9210;48.358;10.902;2023-04-06T07:12:54;12.20;;;7.97;;
18170;SDS011;9210;48.358;10.902;2023-04-06T07:15:23;14.63;;;8.57;;
18170;SDS011;9210;48.358;10.902;2023-04-06T07:17:52;14.17;;;8.53;;
18170;SDS011;9210;48.358;10.902;2023-04-06T07:20:21;16.27;;;9.33;;
18170;SDS011;9210;48.358;10.902;2023-04-06T07:22:50;16.60;;;9.20;;
18170;SDS011;9210;48.358;10.902;2023-04-06T07:25:18;13.53;;;8.30;;
18170;SDS011;9210;48.358;10.902;2023-04-06T07:27:52;15.17;;;8.50;;
18170;SDS011;9210;48.358;10.902;2023-04-06T07:30:21;12.03;;;7.73;;
18170;SDS011;9210;48.358;10.902;2023-04-06T07:32:52;13.20;;;7.57;;
18170;SDS011;9210;48.358;10.902;2023-04-06T07:35:23;15.23;;;8.40;;
18170;SDS011;9210;48.358;10.902;2023-04-06T07:37:53;14.87;;;8.50;;
18170;SDS011;9210;48.358;10.902;2023-04-06T07:40:22;14.63;;;9.00;;
18170;SDS011;9210;48.358;10.902;2023-04-06T07:42:55;13.50;;;8.20;;
18170;SDS011;9210;48.358;10.902;2023-04-06T07:45:24;12.57;;;7.70;;
18170;SDS011;9210;48.358;10.902;2023-04-06T07:47:53;17.25;;;7.90;;
18170;SDS011;9210;48.358;10.902;2023-04-06T07:50:23;12.95;;;8.18;;
18170;SDS011;9210;48.358;10.902;2023-04-06T07:52:53;14.15;;;7.80;;
18170;SDS011;9210;48.358;10.902;2023-04-06T07:55:21;13.38;;;7.95;;
18170;SDS011;9210;48.358;10.902;2023-04-06T07:57:51;12.40;;;8.43;;
18170;SDS011;9210;48.358;10.902;2023-04-06T08:00:21;14.02;;;8.32;;
18170;SDS011;9210;48.358;10.902;2023-04-06T08:02:49;13.70;;;8.52;;
18170;SDS011;9210;48.358;10.902;2023-04-06T08:05:18;12.05;;;7.82;;
18170;SDS011;9210;48.358;10.902;2023-04-06T08:07:47;15.93;;;7.57;;
18170;SDS011;9210;48.358;10.902;2023-04-06T08:10:15;13.73;;;8.00;;
18170;SDS011;9210;48.358;10.902;2023-04-06T08:12:44;14.52;;;8.85;;
18170;SDS011;9210;48.358;10.902;2023-04-06T08:15:12;13.05;;;8.32;;
18170;SDS011;9210;48.358;10.902;2023-04-06T08:17:42;13.43;;;7.82;;
18170;SDS011;9210;48.358;10.902;2023-04-06T08:20:11;16.38;;;8.43;;
18170;SDS011;9210;48.358;10.902;2023-04-06T08:22:39;11.13;;;7.70;;
18170;SDS011;9210;48.358;10.902;2023-04-06T08:25:08;12.55;;;7.85;;
18170;SDS011;9210;48.358;10.902;2023-04-06T08:27:36;11.32;;;7.40;;
18170;SDS011;9210;48.358;10.902;2023-04-06T08:30:05;16.27;;;8.77;;
18170;SDS011;9210;48.358;10.902;2023-04-06T08:32:34;13.00;;;8.27;;
18170;SDS011;9210;48.358;10.902;2023-04-06T08:35:04;15.10;;;8.15;;
18170;SDS011;9210;48.358;10.902;2023-04-06T08:37:33;14.40;;;8.55;;
18170;SDS011;9210;48.358;10.902;2023-04-06T08:40:01;13.48;;;8.35;;
18170;SDS011;9210;48.358;10.902;2023-04-06T08:42:31;15.38;;;8.85;;
18170;SDS011;9210;48.358;10.902;2023-04-06T08:45:00;14.55;;;8.25;;
18170;SDS011;9210;48.358;10.902;2023-04-06T08:47:29;15.00;;;9.35;;
18170;SDS011;9210;48.358;10.902;2023-04-06T08:49:57;17.23;;;9.98;;
18170;SDS011;9210;48.358;10.902;2023-04-06T08:52:28;18.50;;;9.90;;
18170;SDS011;9210;48.358;10.902;2023-04-06T08:54:57;18.60;;;10.03;;
18170;SDS011;9210;48.358;10.902;2023-04-06T08:57:26;18.23;;;9.87;;
18170;SDS011;9210;48.358;10.902;2023-04-06T08:59:54;15.03;;;9.00;;
18170;SDS011;9210;48.358;10.902;2023-04-06T09:02:24;15.93;;;9.60;;
18170;SDS011;9210;48.358;10.902;2023-04-06T09:04:53;16.57;;;9.50;;
18170;SDS011;9210;48.358;10.902;2023-04-06T09:07:22;17.53;;;9.30;;
18170;SDS011;9210;48.358;10.902;2023-04-06T09:09:52;18.73;;;9.50;;
18170;SDS011;9210;48.358;10.902;2023-04-06T09:12:24;16.43;;;9.40;;
18170;SDS011;9210;48.358;10.902;2023-04-06T09:14:53;18.30;;;9.70;;
18170;SDS011;9210;48.358;10.902;2023-04-06T09:17:22;16.13;;;9.10;;
18170;SDS011;9210;48.358;10.902;2023-04-06T09:19:51;18.67;;;9.43;;
18170;SDS011;9210;48.358;10.902;2023-04-06T09:22:20;17.93;;;10.37;;
18170;SDS011;9210;48.358;10.902;2023-04-06T09:24:51;19.80;;;9.97;;
18170;SDS011;9210;48.358;10.902;2023-04-06T09:27:30;18.10;;;10.00;;
18170;SDS011;9210;48.358;10.902;2023-04-06T09:30:03;19.63;;;9.40;;
18170;SDS011;9210;48.358;10.902;2023-04-06T09:32:32;19.00;;;9.73;;
18170;SDS011;9210;48.358;10.902;2023-04-06T09:35:07;14.33;;;8.80;;
18170;SDS011;9210;48.358;10.902;2023-04-06T09:37:37;17.93;;;9.33;;
18170;SDS011;9210;48.358;10.902;2023-04-06T09:40:06;18.67;;;9.20;;
18170;SDS011;9210;48.358;10.902;2023-04-06T09:42:37;16.38;;;9.52;;
18170;SDS011;9210;48.358;10.902;2023-04-06T09:45:06;17.13;;;9.65;;
18170;SDS011;9210;48.358;10.902;2023-04-06T09:47:35;16.75;;;9.00;;
18170;SDS011;9210;48.358;10.902;2023-04-06T09:50:04;15.15;;;7.95;;
18170;SDS011;9210;48.358;10.902;2023-04-06T09:52:33;13.32;;;8.30;;
18170;SDS011;9210;48.358;10.902;2023-04-06T09:55:05;15.75;;;8.68;;
18170;SDS011;9210;48.358;10.902;2023-04-06T09:57:37;15.70;;;8.45;;
18170;SDS011;9210;48.358;10.902;2023-04-06T10:00:10;13.30;;;8.60;;
18170;SDS011;9210;48.358;10.902;2023-04-06T10:02:43;12.77;;;8.05;;
18170;SDS011;9210;48.358;10.902;2023-04-06T10:05:16;16.50;;;9.52;;
18170;SDS011;9210;48.358;10.902;2023-04-06T10:07:47;16.93;;;9.40;;
18170;SDS011;9210;48.358;10.902;2023-04-06T10:10:26;17.40;;;9.43;;
18170;SDS011;9210;48.358;10.902;2023-04-06T10:12:57;14.53;;;8.40;;
18170;SDS011;9210;48.358;10.902;2023-04-06T10:15:26;16.27;;;9.23;;
18170;SDS011;9210;48.358;10.902;2023-04-06T10:17:55;15.82;;;8.55;;
18170;SDS011;9210;48.358;10.902;2023-04-06T10:20:25;17.70;;;9.77;;
18170;SDS011;9210;48.358;10.902;2023-04-06T10:22:58;14.85;;;9.02;;
18170;SDS011;9210;48.358;10.902;2023-04-06T10:25:27;12.68;;;7.90;;
18170;SDS011;9210;48.358;10.902;2023-04-06T10:28:01;14.77;;;8.65;;
18170;SDS011;9210;48.358;10.902;2023-04-06T10:30:29;13.98;;;8.75;;
18170;SDS011;9210;48.358;10.902;2023-04-06T10:32:59;13.98;;;8.68;;
18170;SDS011;9210;48.358;10.902;2023-04-06T10:35:36;13.63;;;8.50;;
18170;SDS011;9210;48.358;10.902;2023-04-06T10:38:05;16.43;;;8.67;;
18170;SDS011;9210;48.358;10.902;2023-04-06T10:40:35;15.60;;;8.77;;
18170;SDS011;9210;48.358;10.902;2023-04-06T10:43:09;13.80;;;7.90;;
18170;SDS011;9210;48.358;10.902;2023-04-06T10:45:38;15.93;;;8.37;;
18170;SDS011;9210;48.358;10.902;2023-04-06T10:48:16;17.00;;;8.93;;
18170;SDS011;9210;48.358;10.902;2023-04-06T10:50:47;19.40;;;9.30;;
18170;SDS011;9210;48.358;10.902;2023-04-06T10:53:20;12.67;;;8.00;;
18170;SDS011;9210;48.358;10.902;2023-04-06T10:55:50;15.00;;;8.77;;
18170;SDS011;9210;48.358;10.902;2023-04-06T10:58:20;12.83;;;7.87;;
18170;SDS011;9210;48.358;10.902;2023-04-06T11:00:48;10.50;;;6.37;;
18170;SDS011;9210;48.358;10.902;2023-04-06T11:03:17;12.37;;;7.10;;
18170;SDS011;9210;48.358;10.902;2023-04-06T11:05:47;12.87;;;7.03;;
18170;SDS011;9210;48.358;10.902;2023-04-06T11:08:22;11.43;;;7.00;;
18170;SDS011;9210;48.358;10.902;2023-04-06T11:10:51;13.23;;;7.03;;
18170;SDS011;9210;48.358;10.902;2023-04-06T11:13:20;12.20;;;6.90;;
18170;SDS011;9210;48.358;10.902;2023-04-06T11:15:49;12.77;;;7.50;;
18170;SDS011;9210;48.358;10.902;2023-04-06T11:18:17;12.57;;;7.27;;
18170;SDS011;9210;48.358;10.902;2023-04-06T11:20:48;12.80;;;7.27;;
18170;SDS011;9210;48.358;10.902;2023-04-06T11:23:22;11.90;;;6.80;;
18170;SDS011;9210;48.358;10.902;2023-04-06T11:25:52;12.10;;;7.60;;
18170;SDS011;9210;48.358;10.902;2023-04-06T11:28:22;12.90;;;8.70;;
18170;SDS011;9210;48.358;10.902;2023-04-06T11:30:50;15.60;;;7.70;;
18170;SDS011;9210;48.358;10.902;2023-04-06T11:33:22;13.77;;;7.70;;
18170;SDS011;9210;48.358;10.902;2023-04-06T11:35:51;14.27;;;7.57;;
18170;SDS011;9210;48.358;10.902;2023-04-06T11:38:19;12.40;;;7.13;;
18170;SDS011;9210;48.358;10.902;2023-04-06T11:40:52;11.07;;;6.83;;
18170;SDS011;9210;48.358;10.902;2023-04-06T11:43:27;10.37;;;5.90;;
18170;SDS011;9210;48.358;10.902;2023-04-06T11:46:02;8.30;;;5.00;;
18170;SDS011;9210;48.358;10.902;2023-04-06T11:48:30;7.72;;;4.65;;
18170;SDS011;9210;48.358;10.902;2023-04-06T11:50:59;8.10;;;4.93;;
18170;SDS011;9210;48.358;10.902;2023-04-06T11:53:30;7.85;;;4.35;;
18170;SDS011;9210;48.358;10.902;2023-04-06T11:55:59;7.22;;;4.75;;
18170;SDS011;9210;48.358;10.902;2023-04-06T11:58:30;6.88;;;4.50;;
18170;SDS011;9210;48.358;10.902;2023-04-06T12:01:03;9.38;;;5.68;;
18170;SDS011;9210;48.358;10.902;2023-04-06T12:03:33;12.25;;;6.28;;
18170;SDS011;9210;48.358;10.902;2023-04-06T12:06:01;8.93;;;5.85;;
18170;SDS011;9210;48.358;10.902;2023-04-06T12:08:30;9.47;;;5.53;;
18170;SDS011;9210;48.358;10.902;2023-04-06T12:10:58;8.65;;;4.90;;
18170;SDS011;9210;48.358;10.902;2023-04-06T12:13:27;10.63;;;6.30;;
18170;SDS011;9210;48.358;10.902;2023-04-06T12:15:57;9.82;;;5.72;;
18170;SDS011;9210;48.358;10.902;2023-04-06T12:18:25;10.35;;;5.97;;
18170;SDS011;9210;48.358;10.902;2023-04-06T12:20:54;9.80;;;5.65;;
18170;SDS011;9210;48.358;10.902;2023-04-06T12:23:22;9.60;;;5.40;;
18170;SDS011;9210;48.358;10.902;2023-04-06T12:25:51;10.07;;;5.20;;
18170;SDS011;9210;48.358;10.902;2023-04-06T12:28:21;8.63;;;5.50;;
18170;SDS011;9210;48.358;10.902;2023-04-06T12:30:53;8.03;;;5.40;;
18170;SDS011;9210;48.358;10.902;2023-04-06T12:33:23;14.00;;;6.33;;
18170;SDS011;9210;48.358;10.902;2023-04-06T12:35:52;11.07;;;6.43;;
18170;SDS011;9210;48.358;10.902;2023-04-06T12:38:20;11.57;;;5.40;;
18170;SDS011;9210;48.358;10.902;2023-04-06T12:40:49;10.13;;;5.53;;
18170;SDS011;9210;48.358;10.902;2023-04-06T12:43:18;9.87;;;6.00;;
18170;SDS011;9210;48.358;10.902;2023-04-06T12:45:46;8.77;;;5.60;;
18170;SDS011;9210;48.358;10.902;2023-04-06T12:48:14;10.60;;;5.30;;
18170;SDS011;9210;48.358;10.902;2023-04-06T12:50:44;11.60;;;5.70;;
18170;SDS011;9210;48.358;10.902;2023-04-06T12:53:13;10.57;;;6.20;;
18170;SDS011;9210;48.358;10.902;2023-04-06T12:55:41;9.73;;;5.10;;
18170;SDS011;9210;48.358;10.902;2023-04-06T12:58:09;8.60;;;5.37;;
18170;SDS011;9210;48.358;10.902;2023-04-06T13:00:38;6.53;;;4.80;;
18170;SDS011;9210;48.358;10.902;2023-04-06T13:03:09;6.83;;;5.07;;
18170;SDS011;9210;48.358;10.902;2023-04-06T13:05:43;8.53;;;5.80;;
18170;SDS011;9210;48.358;10.902;2023-04-06T13:08:13;11.63;;;5.77;;
18170;SDS011;9210;48.358;10.902;2023-04-06T13:10:43;7.93;;;5.23;;
18170;SDS011;9210;48.358;10.902;2023-04-06T13:13:11;11.93;;;6.20;;
18170;SDS011;9210;48.358;10.902;2023-04-06T13:15:40;7.63;;;4.90;;
18170;SDS011;9210;48.358;10.902;2023-04-06T13:18:08;9.73;;;5.70;;
18170;SDS011;9210;48.358;10.902;2023-04-06T13:20:37;8.13;;;4.73;;
18170;SDS011;9210;48.358;10.902;2023-04-06T13:23:06;10.03;;;5.70;;
18170;SDS011;9210;48.358;10.902;2023-04-06T13:25:35;10.43;;;5.70;;
18170;SDS011;9210;48.358;10.902;2023-04-06T13:28:04;11.57;;;5.87;;
18170;SDS011;9210;48.358;10.902;2023-04-06T13:30:32;9.00;;;5.00;;
18170;SDS011;9210;48.358;10.902;2023-04-06T13:33:01;7.10;;;4.20;;
18170;SDS011;9210;48.358;10.902;2023-04-06T13:35:31;8.30;;;4.23;;
18170;SDS011;9210;48.358;10.902;2023-04-06T13:37:59;7.87;;;4.20;;
18170;SDS011;9210;48.358;10.902;2023-04-06T13:40:29;6.30;;;3.97;;
18170;SDS011;9210;48.358;10.902;2023-04-06T13:42:59;7.97;;;4.30;;
18170;SDS011;9210;48.358;10.902;2023-04-06T13:45:27;7.60;;;4.00;;
18170;SDS011;9210;48.358;10.902;2023-04-06T13:47:56;9.00;;;5.30;;
18170;SDS011;9210;48.358;10.902;2023-04-06T13:50:25;8.23;;;4.90;;
18170;SDS011;9210;48.358;10.902;2023-04-06T13:52:53;8.53;;;4.80;;
18170;SDS011;9210;48.358;10.902;2023-04-06T13:55:22;11.37;;;5.00;;
18170;SDS011;9210;48.358;10.902;2023-04-06T13:57:51;7.80;;;5.00;;
18170;SDS011;9210;48.358;10.902;2023-04-06T14:00:21;8.63;;;5.30;;
18170;SDS011;9210;48.358;10.902;2023-04-06T14:02:50;10.17;;;5.70;;
18170;SDS011;9210;48.358;10.902;2023-04-06T14:05:18;7.63;;;4.80;;
18170;SDS011;9210;48.358;10.902;2023-04-06T14:07:46;8.63;;;5.10;;
18170;SDS011;9210;48.358;10.902;2023-04-06T14:10:15;9.20;;;5.20;;
18170;SDS011;9210;48.358;10.902;2023-04-06T14:12:43;9.20;;;4.90;;
18170;SDS011;9210;48.358;10.902;2023-04-06T14:15:12;6.20;;;4.50;;
18170;SDS011;9210;48.358;10.902;2023-04-06T14:17:42;9.10;;;5.00;;
18170;SDS011;9210;48.358;10.902;2023-04-06T14:20:10;10.93;;;6.00;;
18170;SDS011;9210;48.358;10.902;2023-04-06T14:22:41;8.40;;;4.57;;
18170;SDS011;9210;48.358;10.902;2023-04-06T14:25:09;7.27;;;4.70;;
18170;SDS011;9210;48.358;10.902;2023-04-06T14:27:39;9.27;;;4.43;;
18170;SDS011;9210;48.358;10.902;2023-04-06T14:30:07;11.80;;;5.20;;
18170;SDS011;9210;48.358;10.902;2023-04-06T14:32:36;8.60;;;5.03;;
18170;SDS011;9210;48.358;10.902;2023-04-06T14:35:06;10.07;;;5.80;;
18170;SDS011;9210;48.358;10.902;2023-04-06T14:37:35;8.57;;;4.90;;
18170;SDS011;9210;48.358;10.902;2023-04-06T14:40:04;8.47;;;5.20;;
18170;SDS011;9210;48.358;10.902;2023-04-06T14:42:32;8.70;;;4.97;;
18170;SDS011;9210;48.358;10.902;2023-04-06T14:45:01;9.20;;;5.00;;
18170;SDS011;9210;48.358;10.902;2023-04-06T14:47:29;9.73;;;5.20;;
18170;SDS011;9210;48.358;10.902;2023-04-06T14:49:57;7.83;;;4.90;;